Lincoln, Texas
Current Conditions -  °F | °C
As of 10:35 PM on Saturday 20 Dec 2014 (Local Time) from KGYB Reporting Station
Overcast Overcast  
Wind Chill: 49°   Ceiling: 1900
Heat Index: 49°   Visibility: 7mi
Dew Point: 47°   Wind: 3mph
Humidity: 92%   Direction: 100°E
Pressure: 30.22"   Gusts: NA
Location:  30.29°N, 96.96°W
Report Text: KGYB 210435Z AUTO 10003KT 7SM SCT008 OVC019 10/08 A3022 RMK AO2 T00950082
Loading
Personal Weather Stations






























Interactive Weather Map New forecast layout! Learn more

10-Day Weather Forecast

Advertisements
Track Severe Weather on mobile